Time;durP1;ratioP1;P1;durP2;ratioP2;P2;SDS_P1;SDS_P2;PMS_P1;PMS_P2;Temp;Humidity;BMP_temperature;BMP_pressure;BME280_temperature;BME280_humidity;BME280_pressure;Samples;Min_cycle;Max_cycle;Signal;HPM_P1;HPM_P2
2021/09/07 00:00:22;;;;;;;11.52;7.68;;;18.80;99.90;;;;;;5071975;28;20037;-67
2021/09/07 00:02:48;;;;;;;11.10;6.88;;;18.60;99.90;;;;;;5072300;28;20124;-67
2021/09/07 00:05:14;;;;;;;11.43;7.28;;;18.50;99.90;;;;;;5073670;28;20465;-67
2021/09/07 00:07:41;;;;;;;17.00;7.30;;;18.50;99.90;;;;;;5073714;28;20029;-67
2021/09/07 00:10:10;;;;;;;11.68;7.22;;;18.50;99.90;;;;;;5071922;28;20048;-67
2021/09/07 00:12:37;;;;;;;15.68;7.35;;;18.40;99.90;;;;;;5073178;28;20489;-67
2021/09/07 00:15:07;;;;;;;10.77;7.28;;;18.30;99.90;;;;;;5073478;28;20052;-67
2021/09/07 00:17:33;;;;;;;11.82;6.95;;;18.30;99.90;;;;;;5072606;28;20040;-67
2021/09/07 00:19:58;;;;;;;13.80;8.27;;;18.30;99.90;;;;;;5073470;28;20028;-67
2021/09/07 00:22:24;;;;;;;13.95;7.28;;;18.20;99.90;;;;;;5072141;28;20116;-67
2021/09/07 00:24:50;;;;;;;12.15;7.65;;;18.20;99.90;;;;;;5072083;28;20028;-68
2021/09/07 00:27:16;;;;;;;11.15;6.97;;;18.10;99.90;;;;;;5073082;28;20064;-67
2021/09/07 00:29:42;;;;;;;12.95;7.18;;;18.00;99.90;;;;;;5071898;28;20028;-67
2021/09/07 00:32:08;;;;;;;14.32;7.93;;;17.90;99.90;;;;;;5073059;28;20467;-68
2021/09/07 00:34:34;;;;;;;15.25;7.85;;;17.90;99.90;;;;;;5073248;28;20029;-67
2021/09/07 00:37:02;;;;;;;16.23;8.38;;;17.90;99.90;;;;;;5071896;28;20060;-67
2021/09/07 00:39:28;;;;;;;12.57;7.40;;;18.10;99.90;;;;;;5071719;28;20036;-67
2021/09/07 00:41:54;;;;;;;11.85;7.97;;;18.20;99.90;;;;;;5088133;28;20036;-67
2021/09/07 00:44:25;;;;;;;15.63;8.57;;;18.10;99.90;;;;;;5093169;28;20032;-67
2021/09/07 00:46:55;;;;;;;12.52;7.80;;;18.20;99.90;;;;;;5093065;28;20035;-67
2021/09/07 00:49:22;;;;;;;13.77;7.57;;;18.30;99.90;;;;;;5092981;28;20397;-67
2021/09/07 00:51:51;;;;;;;12.13;7.20;;;18.20;99.90;;;;;;5092875;28;20028;-67
2021/09/07 00:54:20;;;;;;;10.32;6.45;;;18.10;99.90;;;;;;5093300;28;20043;-67
2021/09/07 00:56:47;;;;;;;10.38;7.20;;;18.00;99.90;;;;;;5091467;28;20035;-67
2021/09/07 00:59:14;;;;;;;13.63;7.47;;;18.10;99.90;;;;;;5091740;28;20519;-67
2021/09/07 01:01:41;;;;;;;16.67;7.82;;;17.90;99.90;;;;;;5091736;28;20046;-67
2021/09/07 01:04:07;;;;;;;13.45;7.53;;;17.90;99.90;;;;;;5090524;28;20047;-67
2021/09/07 01:06:34;;;;;;;11.30;6.75;;;17.60;99.90;;;;;;5092683;28;20032;-68
2021/09/07 01:09:00;;;;;;;13.88;8.88;;;17.60;99.90;;;;;;5073506;28;20353;-67
2021/09/07 01:11:26;;;;;;;10.48;7.63;;;17.40;99.90;;;;;;5090670;28;20027;-67
2021/09/07 01:13:52;;;;;;;12.63;7.72;;;17.50;99.90;;;;;;5091514;28;20032;-67
2021/09/07 01:16:18;;;;;;;12.95;7.68;;;17.40;99.90;;;;;;5091321;28;20123;-67
2021/09/07 01:18:44;;;;;;;11.30;7.18;;;17.30;99.90;;;;;;5092805;28;20114;-67
2021/09/07 01:21:12;;;;;;;14.02;8.15;;;17.20;99.90;;;;;;5092825;28;20036;-68
2021/09/07 01:23:41;;;;;;;13.75;7.35;;;17.20;99.90;;;;;;5087409;28;20650;-67
2021/09/07 01:26:08;;;;;;;9.98;6.63;;;17.10;99.90;;;;;;5072347;28;20536;-67
2021/09/07 01:28:34;;;;;;;14.38;8.00;;;17.10;99.90;;;;;;5070893;28;20032;-67
2021/09/07 01:31:02;;;;;;;12.27;8.20;;;17.00;99.90;;;;;;5071009;28;20029;-67
2021/09/07 01:33:28;;;;;;;10.07;6.72;;;17.00;99.90;;;;;;5072538;28;20376;-67
2021/09/07 01:35:56;;;;;;;13.98;7.90;;;17.00;99.90;;;;;;5072221;28;20124;-67
2021/09/07 01:38:23;;;;;;;11.18;7.13;;;16.90;99.90;;;;;;5070861;28;20504;-68
2021/09/07 01:40:50;;;;;;;13.95;8.07;;;17.00;99.90;;;;;;5072234;28;20485;-67
2021/09/07 01:43:16;;;;;;;11.13;7.82;;;16.90;99.90;;;;;;5071192;28;20109;-67
2021/09/07 01:45:51;;;;;;;13.63;8.50;;;16.90;99.90;;;;;;5071956;28;20615;-67
2021/09/07 01:48:18;;;;;;;11.43;7.53;;;16.80;99.90;;;;;;5072082;28;20041;-67
2021/09/07 01:50:46;;;;;;;15.25;8.55;;;16.80;99.90;;;;;;5070278;28;20032;-67
2021/09/07 01:53:11;;;;;;;14.48;8.43;;;16.70;99.90;;;;;;5071120;28;20081;-67
2021/09/07 01:55:37;;;;;;;12.35;8.13;;;16.70;99.90;;;;;;5071823;28;20111;-67
2021/09/07 01:58:03;;;;;;;16.45;9.38;;;16.70;99.90;;;;;;5070848;28;20040;-67
2021/09/07 02:00:30;;;;;;;14.52;8.88;;;16.80;99.90;;;;;;5071772;28;20024;-67
2021/09/07 02:02:56;;;;;;;16.20;9.40;;;17.00;99.90;;;;;;5072122;28;20040;-67
2021/09/07 02:05:22;;;;;;;11.63;7.50;;;17.00;99.90;;;;;;5070751;28;20036;-67
2021/09/07 02:07:51;;;;;;;16.92;8.75;;;17.10;99.90;;;;;;5071504;28;20032;-67
2021/09/07 02:10:17;;;;;;;11.75;8.77;;;17.20;99.90;;;;;;5070622;28;20456;-67
2021/09/07 02:12:43;;;;;;;16.88;9.20;;;17.30;99.90;;;;;;5070442;28;20115;-67
2021/09/07 02:15:10;;;;;;;14.98;9.30;;;17.10;99.90;;;;;;5070391;28;20055;-67
2021/09/07 02:17:37;;;;;;;16.38;9.07;;;16.80;99.90;;;;;;5071642;28;20478;-67
2021/09/07 02:20:04;;;;;;;11.90;7.68;;;16.80;99.90;;;;;;5070703;28;20123;-67
2021/09/07 02:22:30;;;;;;;15.65;8.65;;;16.90;99.90;;;;;;5071799;28;20485;-67
2021/09/07 02:24:56;;;;;;;16.05;11.10;;;16.70;99.90;;;;;;5075654;28;20253;-67
2021/09/07 02:27:22;;;;;;;16.27;8.80;;;16.70;99.90;;;;;;5074441;28;20111;-67
2021/09/07 02:29:48;;;;;;;15.15;9.15;;;16.70;99.90;;;;;;5075592;28;20466;-67
2021/09/07 02:32:13;;;;;;;13.45;7.90;;;16.60;99.90;;;;;;5075508;28;20035;-67
2021/09/07 02:34:39;;;;;;;10.90;7.28;;;16.50;99.90;;;;;;5074142;28;20094;-67
2021/09/07 02:37:05;;;;;;;9.48;7.30;;;16.50;99.90;;;;;;5074078;28;20493;-67
2021/09/07 02:39:31;;;;;;;13.02;7.88;;;16.50;99.90;;;;;;5057471;28;20066;-67
2021/09/07 02:41:58;;;;;;;12.93;7.93;;;16.40;99.90;;;;;;5075353;28;20075;-67
2021/09/07 02:44:24;;;;;;;12.65;7.90;;;16.30;99.90;;;;;;5073956;28;20039;-67
2021/09/07 02:46:50;;;;;;;11.98;7.97;;;16.20;99.90;;;;;;5075324;28;20453;-67
2021/09/07 02:49:16;;;;;;;14.35;8.13;;;16.10;99.90;;;;;;5075141;28;20037;-67
2021/09/07 02:51:47;;;;;;;11.40;7.78;;;16.00;99.90;;;;;;5074732;28;20591;-67
2021/09/07 02:54:14;;;;;;;12.38;8.70;;;16.20;99.90;;;;;;5090951;28;20056;-67
2021/09/07 02:56:40;;;;;;;17.40;8.30;;;16.10;99.90;;;;;;5073614;28;20028;-67
2021/09/07 02:59:06;;;;;;;15.25;8.80;;;16.00;99.90;;;;;;5073767;28;20029;-67
2021/09/07 03:01:31;;;;;;;18.02;8.80;;;15.90;99.90;;;;;;5073755;28;20039;-68
2021/09/07 03:03:58;;;;;;;16.50;9.35;;;15.80;99.90;;;;;;5075042;28;20032;-68
2021/09/07 03:06:24;;;;;;;13.18;9.23;;;15.80;99.90;;;;;;5073821;28;20097;-68
2021/09/07 03:08:49;;;;;;;17.38;9.43;;;15.70;99.90;;;;;;5073659;28;20465;-68
2021/09/07 03:11:15;;;;;;;15.18;9.30;;;15.90;99.90;;;;;;5074968;28;20112;-68
2021/09/07 03:13:41;;;;;;;13.90;9.77;;;15.80;99.90;;;;;;5074666;28;20051;-68
2021/09/07 03:16:07;;;;;;;17.92;11.68;;;15.90;99.90;;;;;;5073343;28;20052;-68
2021/09/07 03:18:33;;;;;;;17.00;10.68;;;15.90;99.90;;;;;;5073563;28;20505;-68
2021/09/07 03:20:58;;;;;;;14.23;9.43;;;16.00;99.90;;;;;;5056284;28;20111;-68
2021/09/07 03:23:24;;;;;;;16.65;9.50;;;16.00;99.90;;;;;;5074382;28;20066;-66
2021/09/07 03:25:50;;;;;;;16.73;9.65;;;15.90;99.90;;;;;;5073125;28;20035;-67
2021/09/07 03:28:16;;;;;;;15.65;9.27;;;15.90;99.90;;;;;;5074355;28;20043;-68
2021/09/07 03:30:41;;;;;;;16.15;9.52;;;15.90;99.90;;;;;;5074216;28;20029;-68
2021/09/07 03:33:07;;;;;;;18.48;8.90;;;15.90;99.90;;;;;;5074524;28;20120;-69
2021/09/07 03:35:33;;;;;;;15.95;9.77;;;15.80;99.90;;;;;;5073343;28;20032;-68
2021/09/07 03:37:59;;;;;;;14.60;9.13;;;15.70;99.90;;;;;;5073232;28;20035;-67
2021/09/07 03:40:26;;;;;;;17.10;9.90;;;15.80;99.90;;;;;;5072988;28;20037;-67
2021/09/07 03:42:51;;;;;;;16.27;10.85;;;15.60;99.90;;;;;;5074348;28;20032;-68
2021/09/07 03:45:18;;;;;;;16.90;10.25;;;15.60;99.90;;;;;;5055925;28;20392;-67
2021/09/07 03:47:45;;;;;;;14.93;9.90;;;15.60;99.90;;;;;;5073387;28;20177;-68
2021/09/07 03:50:15;;;;;;;15.05;10.02;;;15.70;99.90;;;;;;5075923;28;20035;-68
2021/09/07 03:52:42;;;;;;;20.30;11.65;;;15.90;99.90;;;;;;5071559;28;20033;-67
2021/09/07 03:55:09;;;;;;;18.83;11.55;;;16.00;99.90;;;;;;5076326;28;20020;-67
2021/09/07 03:57:35;;;;;;;17.55;12.00;;;16.10;99.90;;;;;;5074337;28;20028;-68
2021/09/07 04:00:00;;;;;;;18.48;11.80;;;16.20;99.90;;;;;;5072117;28;20469;-56
2021/09/07 04:02:27;;;;;;;18.27;10.88;;;16.30;99.90;;;;;;5073982;28;20040;-57
2021/09/07 04:04:53;;;;;;;16.77;11.35;;;16.30;99.90;;;;;;5073794;28;20111;-57
2021/09/07 04:07:19;;;;;;;18.10;10.50;;;16.40;99.90;;;;;;5073643;28;20405;-57
2021/09/07 04:09:45;;;;;;;18.40;10.43;;;16.40;99.90;;;;;;5073532;28;20094;-59
2021/09/07 04:12:11;;;;;;;19.63;11.10;;;16.40;99.90;;;;;;5073534;28;20029;-57
2021/09/07 04:14:37;;;;;;;18.15;10.75;;;16.40;99.90;;;;;;5073517;28;20135;-58
2021/09/07 04:17:04;;;;;;;16.55;10.77;;;16.40;99.90;;;;;;5073620;28;20103;-57
2021/09/07 04:19:31;;;;;;;15.38;10.57;;;16.40;99.90;;;;;;5073565;28;20028;-57
2021/09/07 04:21:57;;;;;;;19.63;10.75;;;16.40;99.90;;;;;;5072012;28;20447;-60
2021/09/07 04:24:22;;;;;;;15.55;10.73;;;16.40;99.90;;;;;;5073610;28;20028;-58
2021/09/07 04:26:48;;;;;;;17.80;11.38;;;16.40;99.90;;;;;;5073056;28;20040;-58
2021/09/07 04:29:14;;;;;;;21.90;10.88;;;16.40;99.90;;;;;;5073397;28;20055;-58
2021/09/07 04:31:42;;;;;;;20.52;11.65;;;16.40;99.90;;;;;;5073378;28;20040;-59
2021/09/07 04:34:08;;;;;;;18.48;12.13;;;16.30;99.90;;;;;;5088814;28;20064;-58
2021/09/07 04:36:34;;;;;;;21.17;12.30;;;16.00;99.90;;;;;;5072997;28;20369;-57
2021/09/07 04:39:00;;;;;;;30.45;18.63;;;15.90;99.90;;;;;;5073241;28;20067;-59
2021/09/07 04:41:26;;;;;;;51.85;33.33;;;15.90;99.90;;;;;;5073223;28;20048;-58
2021/09/07 04:43:51;;;;;;;18.80;12.32;;;16.00;99.90;;;;;;5072004;28;20067;-59
2021/09/07 04:46:17;;;;;;;19.65;12.50;;;16.00;99.90;;;;;;5072604;28;20453;-60
2021/09/07 04:48:43;;;;;;;21.17;13.55;;;15.70;99.90;;;;;;5073076;28;20029;-59
2021/09/07 04:51:09;;;;;;;27.00;18.08;;;15.70;99.90;;;;;;5072804;28;20128;-59
2021/09/07 04:53:36;;;;;;;24.38;16.58;;;15.70;99.90;;;;;;5072152;28;20112;-59
2021/09/07 04:56:02;;;;;;;18.60;11.93;;;15.90;99.90;;;;;;5072963;28;20026;-56
2021/09/07 04:58:27;;;;;;;22.85;14.00;;;15.70;99.90;;;;;;5072967;28;20059;-57
2021/09/07 05:00:53;;;;;;;23.45;14.45;;;15.60;99.90;;;;;;5072809;28;20020;-58
2021/09/07 05:03:19;;;;;;;19.95;13.82;;;15.70;99.90;;;;;;5072931;28;20063;-58
2021/09/07 05:05:45;;;;;;;18.38;12.05;;;16.00;99.90;;;;;;5088031;28;20028;-59
2021/09/07 05:08:10;;;;;;;18.42;11.55;;;16.10;99.90;;;;;;5072579;28;20029;-58
2021/09/07 05:10:36;;;;;;;17.77;11.73;;;16.20;99.90;;;;;;5072791;28;20501;-58
2021/09/07 05:13:02;;;;;;;18.25;11.93;;;16.20;99.90;;;;;;5072607;28;20066;-57
2021/09/07 05:15:27;;;;;;;19.13;12.07;;;15.90;99.90;;;;;;5072427;28;20119;-58
2021/09/07 05:17:53;;;;;;;21.13;12.63;;;15.80;99.90;;;;;;5070875;28;20107;-57
2021/09/07 05:20:19;;;;;;;17.73;11.40;;;15.70;99.90;;;;;;5072393;28;20036;-58
2021/09/07 05:22:46;;;;;;;21.08;12.20;;;15.70;99.90;;;;;;5072677;28;20028;-57
2021/09/07 05:25:12;;;;;;;19.42;10.77;;;15.70;99.90;;;;;;5071022;28;20110;-58
2021/09/07 05:27:38;;;;;;;17.65;11.63;;;15.70;99.90;;;;;;5072454;28;20132;-57
2021/09/07 05:30:07;;;;;;;24.10;12.43;;;15.90;99.90;;;;;;5072347;28;20119;-57
2021/09/07 05:32:33;;;;;;;19.60;10.68;;;16.00;99.90;;;;;;5072192;28;20455;-55
2021/09/07 05:34:59;;;;;;;21.38;11.88;;;16.10;99.90;;;;;;5072430;28;20060;-56
2021/09/07 05:37:24;;;;;;;17.65;11.35;;;16.30;99.90;;;;;;5090897;28;20063;-57
2021/09/07 05:39:50;;;;;;;22.77;12.57;;;16.30;99.90;;;;;;5084509;28;20090;-58
2021/09/07 05:42:16;;;;;;;16.55;10.75;;;16.40;99.90;;;;;;5072206;28;20032;-59
2021/09/07 05:44:42;;;;;;;23.50;11.52;;;16.40;99.90;;;;;;5070418;28;20036;-58
2021/09/07 05:47:08;;;;;;;19.90;10.63;;;16.50;99.90;;;;;;5071249;28;20513;-55
2021/09/07 05:49:34;;;;;;;22.13;10.90;;;16.70;99.90;;;;;;5070181;28;20048;-57
2021/09/07 05:52:00;;;;;;;19.42;13.20;;;16.80;99.90;;;;;;5072847;28;20078;-56
2021/09/07 05:54:26;;;;;;;22.20;12.32;;;16.90;99.90;;;;;;5088573;28;20028;-57
2021/09/07 05:56:51;;;;;;;19.45;11.70;;;17.00;99.90;;;;;;5077003;28;20512;-59
2021/09/07 05:59:17;;;;;;;21.15;12.23;;;17.10;99.90;;;;;;5074946;28;20033;-58
2021/09/07 06:01:44;;;;;;;21.35;13.77;;;17.30;99.90;;;;;;5074893;28;20430;-58
2021/09/07 06:04:09;;;;;;;21.42;12.45;;;17.30;99.90;;;;;;5076019;28;20032;-59
2021/09/07 06:06:35;;;;;;;23.83;12.80;;;17.20;99.90;;;;;;5075892;28;20397;-58
2021/09/07 06:09:01;;;;;;;20.63;12.88;;;17.20;99.90;;;;;;5075873;28;20033;-55
2021/09/07 06:11:27;;;;;;;17.98;11.63;;;17.30;99.90;;;;;;5075886;28;20040;-58
2021/09/07 06:13:53;;;;;;;20.98;12.68;;;17.30;99.90;;;;;;5075882;28;20037;-58
2021/09/07 06:16:21;;;;;;;22.38;12.60;;;17.30;99.90;;;;;;5075564;28;20048;-59
2021/09/07 06:18:47;;;;;;;22.08;11.80;;;17.30;99.90;;;;;;5085474;28;20040;-58
2021/09/07 06:21:13;;;;;;;18.88;11.52;;;17.40;99.90;;;;;;5087176;28;20102;-59
2021/09/07 06:23:39;;;;;;;21.90;11.90;;;17.50;99.90;;;;;;5095942;28;20032;-59
2021/09/07 06:26:04;;;;;;;20.75;11.93;;;17.50;99.90;;;;;;5095886;28;20062;-58
2021/09/07 06:28:30;;;;;;;22.63;12.88;;;17.50;99.90;;;;;;5095955;28;20036;-60
2021/09/07 06:30:56;;;;;;;18.98;12.00;;;17.40;99.90;;;;;;5095654;28;20068;-59
2021/09/07 06:33:22;;;;;;;27.00;13.18;;;17.50;99.90;;;;;;5095688;28;20031;-58
2021/09/07 06:35:48;;;;;;;23.55;12.80;;;17.40;99.90;;;;;;5095438;28;20036;-56
2021/09/07 06:38:14;;;;;;;19.83;12.05;;;17.50;99.90;;;;;;5095490;28;20036;-58
2021/09/07 06:40:41;;;;;;;18.60;12.07;;;17.60;99.90;;;;;;5095913;28;20032;-58
2021/09/07 06:43:07;;;;;;;17.42;11.00;;;17.60;99.90;;;;;;5095593;28;20740;-58
2021/09/07 06:45:33;;;;;;;20.92;12.50;;;17.70;99.90;;;;;;5095507;28;20477;-57
2021/09/07 06:47:59;;;;;;;18.70;11.93;;;17.50;99.90;;;;;;5091643;28;20128;-58
2021/09/07 06:50:24;;;;;;;21.63;12.70;;;17.60;99.90;;;;;;5095303;28;20028;-57
2021/09/07 06:52:50;;;;;;;23.25;12.35;;;17.60;99.90;;;;;;5095500;28;20043;-59
2021/09/07 06:55:16;;;;;;;20.60;11.65;;;17.70;99.90;;;;;;5095641;28;20032;-58
2021/09/07 06:57:41;;;;;;;17.90;11.57;;;17.90;99.90;;;;;;5095427;28;20027;-57
2021/09/07 07:00:11;;;;;;;19.73;12.15;;;17.80;99.90;;;;;;5093638;28;20040;-58
2021/09/07 07:02:40;;;;;;;27.40;12.43;;;18.00;99.90;;;;;;5095293;28;20032;-60
2021/09/07 07:05:07;;;;;;;21.67;12.52;;;18.20;99.90;;;;;;5093843;28;20031;-58
2021/09/07 07:07:34;;;;;;;17.33;11.77;;;17.60;99.90;;;;;;5095121;28;20028;-58
2021/09/07 07:10:00;;;;;;;18.40;11.52;;;17.60;99.90;;;;;;5094958;28;20032;-59
2021/09/07 07:12:26;;;;;;;23.85;13.38;;;17.60;99.90;;;;;;5095377;28;20055;-58
2021/09/07 07:14:51;;;;;;;23.10;12.45;;;17.60;99.90;;;;;;5093358;28;20132;-58
2021/09/07 07:17:17;;;;;;;18.95;12.52;;;17.80;99.90;;;;;;5095002;28;20031;-62
2021/09/07 07:19:43;;;;;;;17.88;11.95;;;17.70;99.90;;;;;;5093868;28;20028;-58
2021/09/07 07:22:12;;;;;;;20.35;12.40;;;17.50;99.90;;;;;;5094961;28;20081;-59
2021/09/07 07:24:38;;;;;;;16.27;11.32;;;17.60;99.90;;;;;;5094981;28;20035;-59
2021/09/07 07:27:04;;;;;;;21.08;13.15;;;18.00;99.90;;;;;;5094564;28;20028;-59
2021/09/07 07:29:31;;;;;;;22.90;12.23;;;18.30;99.90;;;;;;5093249;28;20400;-59
2021/09/07 07:31:57;;;;;;;17.60;11.18;;;18.50;99.90;;;;;;5094646;28;20507;-59
2021/09/07 07:34:23;;;;;;;18.92;11.98;;;18.70;99.90;;;;;;5094659;28;20024;-59
2021/09/07 07:36:53;;;;;;;19.73;11.77;;;18.70;99.90;;;;;;5094887;28;20127;-59
2021/09/07 07:39:19;;;;;;;21.35;11.65;;;18.90;99.90;;;;;;5060391;28;20039;-59
2021/09/07 07:41:45;;;;;;;20.85;11.88;;;19.20;99.90;;;;;;5094820;28;20036;-59
2021/09/07 07:44:11;;;;;;;21.77;12.32;;;19.40;99.90;;;;;;5094068;28;20032;-60
2021/09/07 07:46:36;;;;;;;18.25;12.23;;;18.70;99.90;;;;;;5094671;28;20116;-60
2021/09/07 07:49:03;;;;;;;20.45;11.73;;;18.50;99.90;;;;;;5080256;28;20062;-60
2021/09/07 07:51:29;;;;;;;18.38;12.02;;;18.60;99.90;;;;;;5073970;28;20050;-61
2021/09/07 07:53:55;;;;;;;22.83;13.80;;;18.40;99.90;;;;;;5072507;28;20393;-61
2021/09/07 07:56:21;;;;;;;19.65;12.80;;;18.30;99.90;;;;;;5073044;28;20025;-60
2021/09/07 07:58:46;;;;;;;22.58;12.05;;;18.20;99.90;;;;;;5073903;28;20042;-60
2021/09/07 08:01:12;;;;;;;20.42;12.85;;;18.60;99.90;;;;;;5073984;28;20028;-61
2021/09/07 08:03:40;;;;;;;17.63;11.82;;;18.80;99.90;;;;;;5073730;28;20040;-60
2021/09/07 08:06:06;;;;;;;18.98;11.43;;;19.20;99.90;;;;;;5073578;28;20039;-60
2021/09/07 08:08:31;;;;;;;20.92;13.10;;;19.60;99.90;;;;;;5073977;28;20041;-59
2021/09/07 08:10:57;;;;;;;21.70;11.48;;;19.30;99.90;;;;;;5073345;28;20078;-60
2021/09/07 08:13:23;;;;;;;21.85;12.35;;;19.30;99.90;;;;;;5072149;28;20128;-60
2021/09/07 08:15:48;;;;;;;22.42;12.27;;;19.40;99.90;;;;;;5073383;28;20466;-60
2021/09/07 08:18:14;;;;;;;20.40;11.93;;;19.50;99.90;;;;;;5073720;28;20546;-60
2021/09/07 08:20:43;;;;;;;23.20;12.63;;;19.60;99.90;;;;;;5055411;28;20047;-60
2021/09/07 08:23:08;;;;;;;19.55;12.23;;;19.60;99.90;;;;;;5073540;28;20548;-60
2021/09/07 08:25:34;;;;;;;20.92;12.63;;;19.80;99.90;;;;;;5073350;28;20124;-60
2021/09/07 08:28:00;;;;;;;19.15;11.85;;;19.70;99.90;;;;;;5071995;28;20440;-60
2021/09/07 08:30:26;;;;;;;20.70;12.77;;;19.90;99.90;;;;;;5073457;28;20103;-60
2021/09/07 08:32:52;;;;;;;20.90;12.18;;;20.30;99.90;;;;;;5073369;28;20384;-60
2021/09/07 08:35:18;;;;;;;21.10;12.57;;;20.00;99.90;;;;;;5072807;28;20036;-60
2021/09/07 08:37:43;;;;;;;18.13;11.57;;;20.50;99.90;;;;;;5073455;28;20040;-59
2021/09/07 08:40:11;;;;;;;22.63;12.90;;;20.60;99.90;;;;;;5073146;28;20108;-60
2021/09/07 08:42:37;;;;;;;20.77;12.18;;;20.90;99.90;;;;;;5073251;28;20040;-60
2021/09/07 08:45:07;;;;;;;26.80;13.25;;;21.00;99.90;;;;;;5072976;28;20069;-60
2021/09/07 08:47:33;;;;;;;22.30;11.95;;;21.40;99.90;;;;;;5072678;28;20037;-60
2021/09/07 08:50:01;;;;;;;23.08;12.68;;;21.40;99.90;;;;;;5072875;28;20456;-60
2021/09/07 08:52:27;;;;;;;20.95;13.52;;;21.40;99.90;;;;;;5072836;28;20028;-60
2021/09/07 08:54:53;;;;;;;22.83;13.32;;;21.40;99.90;;;;;;5073114;28;20040;-60
2021/09/07 08:57:19;;;;;;;20.95;13.18;;;20.90;99.90;;;;;;5072598;28;20440;-60
2021/09/07 08:59:57;;;;;;;20.88;12.43;;;21.40;99.90;;;;;;5072675;28;20036;-60
2021/09/07 09:02:22;;;;;;;22.10;14.35;;;21.80;99.90;;;;;;5071508;28;20043;-60
2021/09/07 09:04:50;;;;;;;27.25;15.27;;;21.70;99.90;;;;;;5071615;28;20032;-60
2021/09/07 09:07:28;;;;;;;27.30;14.02;;;21.70;99.90;;;;;;5072742;28;20111;-59
2021/09/07 09:09:56;;;;;;;26.17;14.73;;;21.90;99.90;;;;;;5072489;28;20033;-61
2021/09/07 09:12:35;;;;;;;26.55;15.15;;;21.90;99.90;;;;;;5072812;28;20029;-61
2021/09/07 09:15:20;;;;;;;26.67;16.38;;;21.80;99.90;;;;;;5072248;28;20045;-61
2021/09/07 09:17:46;;;;;;;26.52;16.13;;;22.00;99.90;;;;;;5072430;28;20056;-61
2021/09/07 09:20:18;;;;;;;23.95;14.52;;;21.80;99.90;;;;;;5072222;28;20040;-61
2021/09/07 09:22:52;;;;;;;29.80;15.65;;;21.90;99.90;;;;;;5072416;28;20036;-61
2021/09/07 09:25:23;;;;;;;25.08;14.75;;;21.80;99.90;;;;;;5072232;28;20040;-61
2021/09/07 09:27:55;;;;;;;26.50;14.90;;;21.80;99.90;;;;;;5072178;28;20083;-61
2021/09/07 09:30:45;;;;;;;27.63;15.75;;;22.10;99.90;;;;;;5071952;28;20041;-61
2021/09/07 09:33:15;;;;;;;27.30;15.10;;;22.30;99.90;;;;;;5057364;28;20062;-60
2021/09/07 09:35:51;;;;;;;24.25;14.77;;;22.30;99.90;;;;;;5071079;28;20115;-59
2021/09/07 09:38:21;;;;;;;26.45;15.75;;;22.50;99.90;;;;;;5072152;28;20039;-59
2021/09/07 09:41:05;;;;;;;27.92;15.52;;;22.90;99.90;;;;;;5072130;28;20048;-60
2021/09/07 09:43:37;;;;;;;31.73;15.40;;;23.10;99.90;;;;;;5074765;28;20033;-60
2021/09/07 09:46:27;;;;;;;26.90;16.15;;;22.90;99.90;;;;;;5071207;28;20500;-60
2021/09/07 09:49:14;;;;;;;25.75;15.95;;;22.50;99.90;;;;;;5056667;28;20099;-60
2021/09/07 09:51:41;;;;;;;26.25;17.25;;;22.90;99.90;;;;;;5072332;28;20040;-60
2021/09/07 09:54:07;;;;;;;28.98;16.27;;;22.90;99.90;;;;;;5072283;28;20124;-60
2021/09/07 09:56:34;;;;;;;22.08;14.60;;;23.50;99.90;;;;;;5070925;28;20443;-60
2021/09/07 09:59:02;;;;;;;25.35;16.60;;;23.70;99.90;;;;;;5072173;28;20113;-60
2021/09/07 10:01:28;;;;;;;25.27;16.13;;;23.60;99.90;;;;;;5070854;28;20033;-60
2021/09/07 10:03:54;;;;;;;26.60;16.40;;;23.80;99.90;;;;;;5072269;28;20037;-60
2021/09/07 10:06:21;;;;;;;30.60;17.38;;;23.60;99.90;;;;;;5072038;28;20119;-60
2021/09/07 10:08:47;;;;;;;36.10;16.60;;;23.80;99.90;;;;;;5070905;28;20047;-60
2021/09/07 10:11:16;;;;;;;27.65;15.32;;;24.20;99.90;;;;;;5071912;28;20029;-60
2021/09/07 10:13:48;;;;;;;32.15;18.38;;;24.30;99.90;;;;;;5070945;28;20036;-60
2021/09/07 10:16:36;;;;;;;30.13;16.58;;;24.60;99.90;;;;;;5070412;28;20045;-60
2021/09/07 10:19:10;;;;;;;24.00;16.05;;;24.50;99.90;;;;;;5071729;28;20037;-60
2021/09/07 10:24:19;;;;;;;23.08;15.15;;;24.30;99.90;;;;;;5071627;28;20032;-60
2021/09/07 10:26:45;;;;;;;29.42;16.55;;;24.40;99.90;;;;;;5071816;28;20086;-59
2021/09/07 10:29:33;;;;;;;25.55;16.05;;;23.80;99.90;;;;;;5071415;28;20045;-59
2021/09/07 10:31:58;;;;;;;31.15;16.65;;;24.50;99.90;;;;;;5071897;28;20028;-59
2021/09/07 10:34:28;;;;;;;26.40;15.48;;;24.80;99.90;;;;;;5071749;28;20068;-59
2021/09/07 10:37:04;;;;;;;21.38;13.43;;;25.10;99.90;;;;;;5072476;28;20504;-59
2021/09/07 10:39:38;;;;;;;22.52;13.55;;;25.50;98.40;;;;;;5086272;28;20047;-61
2021/09/07 10:42:06;;;;;;;24.52;14.35;;;25.60;98.40;;;;;;5091624;28;20103;-60
2021/09/07 10:44:37;;;;;;;23.60;13.10;;;25.70;98.10;;;;;;5093376;28;20030;-58
2021/09/07 10:47:13;;;;;;;26.52;15.30;;;25.70;97.50;;;;;;5094328;28;20052;-58
2021/09/07 10:49:43;;;;;;;19.92;13.52;;;25.20;98.20;;;;;;5095627;28;20506;-58
2021/09/07 10:52:18;;;;;;;22.52;13.95;;;25.20;98.80;;;;;;5095061;28;20044;-59
2021/09/07 10:54:53;;;;;;;23.45;12.63;;;25.90;97.90;;;;;;5095636;28;20036;-58
2021/09/07 10:57:43;;;;;;;21.15;14.10;;;25.80;98.60;;;;;;5095444;28;20032;-58
2021/09/07 11:00:21;;;;;;;22.60;13.35;;;26.00;98.00;;;;;;5095486;28;20039;-59
2021/09/07 11:03:02;;;;;;;20.23;14.02;;;25.50;98.20;;;;;;5095605;28;20437;-58
2021/09/07 11:05:38;;;;;;;;;;;25.70;97.90;;;;;;5095975;28;20122;-59
2021/09/07 11:08:18;;;;;;;21.38;13.38;;;26.10;97.00;;;;;;5095044;28;19957;-59
2021/09/07 11:10:45;;;;;;;24.30;14.20;;;27.00;96.80;;;;;;5095427;28;20040;-59
2021/09/07 11:13:27;;;;;;;23.42;14.38;;;27.00;95.90;;;;;;5095101;28;20036;-59
2021/09/07 11:16:02;;;;;;;23.75;12.60;;;26.40;96.20;;;;;;5095053;28;20040;-58
2021/09/07 11:18:35;;;;;;;16.13;10.88;;;25.30;97.00;;;;;;5094981;28;20393;-59
2021/09/07 11:21:06;;;;;;;19.35;10.70;;;25.80;96.20;;;;;;5094691;28;20086;-59
2021/09/07 11:23:38;;;;;;;18.05;11.25;;;26.10;96.50;;;;;;5094973;28;20036;-58
2021/09/07 11:26:16;;;;;;;22.95;13.38;;;26.90;95.40;;;;;;5094437;28;20088;-58
2021/09/07 11:28:48;;;;;;;20.30;11.82;;;26.60;95.60;;;;;;5094607;28;20393;-58
2021/09/07 11:31:14;;;;;;;24.63;13.77;;;27.20;95.50;;;;;;5094715;28;20040;-59
2021/09/07 11:33:42;;;;;;;30.27;15.63;;;27.80;94.50;;;;;;5094348;28;20036;-59
2021/09/07 11:36:11;;;;;;;21.75;12.68;;;27.70;94.00;;;;;;5094270;28;20039;-58
2021/09/07 11:38:40;;;;;;;27.50;12.93;;;27.30;95.10;;;;;;5094816;28;20028;-59
2021/09/07 11:41:10;;;;;;;24.02;10.93;;;26.80;94.80;;;;;;5094674;28;20036;-59
2021/09/07 11:43:44;;;;;;;22.40;13.40;;;27.00;95.30;;;;;;5094520;28;20032;-59
2021/09/07 11:46:27;;;;;;;20.98;12.73;;;27.00;95.10;;;;;;5090841;28;20074;-59
2021/09/07 11:49:08;;;;;;;22.00;11.05;;;27.70;94.40;;;;;;5094025;28;20043;-58
2021/09/07 11:51:38;;;;;;;18.45;12.10;;;28.00;94.00;;;;;;5094266;28;20096;-58
2021/09/07 11:54:07;;;;;;;21.73;12.02;;;28.40;93.40;;;;;;5094658;28;20027;-58
2021/09/07 11:56:36;;;;;;;28.00;13.27;;;28.40;93.30;;;;;;5093460;28;20039;-58
2021/09/07 11:59:19;;;;;;;19.60;12.35;;;28.40;92.60;;;;;;5093828;28;20032;-58
2021/09/07 12:01:50;;;;;;;20.27;12.73;;;28.30;92.60;;;;;;5094540;28;20032;-59
2021/09/07 12:04:18;;;;;;;19.40;11.95;;;29.00;91.90;;;;;;5094040;28;20527;-59
2021/09/07 12:06:51;;;;;;;16.73;10.82;;;28.30;92.30;;;;;;5094215;28;20032;-59
2021/09/07 12:09:31;;;;;;;17.00;10.77;;;28.40;92.20;;;;;;5093949;28;20031;-59
2021/09/07 12:12:02;;;;;;;21.30;10.93;;;29.00;92.40;;;;;;5094131;28;20035;-59
2021/09/07 12:14:37;;;;;;;20.35;11.27;;;30.00;91.30;;;;;;5094025;28;20052;-59
2021/09/07 12:17:18;;;;;;;18.13;11.32;;;30.50;90.20;;;;;;5094025;28;20069;-59
2021/09/07 12:19:52;;;;;;;20.25;11.65;;;30.00;90.40;;;;;;5093924;28;20051;-59
2021/09/07 12:22:25;;;;;;;18.88;11.73;;;29.80;89.50;;;;;;5093430;28;20431;-59
2021/09/07 12:25:01;;;;;;;16.88;11.15;;;30.30;89.40;;;;;;5093932;28;20028;-60
2021/09/07 12:27:30;;;;;;;19.50;12.40;;;29.70;90.60;;;;;;5093751;28;20059;-60
2021/09/07 12:30:31;;;;;;;15.23;9.15;;;30.60;88.80;;;;;;5093445;28;20485;-75
2021/09/07 12:33:10;;;;;;;16.88;8.88;;;31.10;87.10;;;;;;5093667;28;20028;-76
2021/09/07 12:35:53;;;;;;;14.32;8.35;;;29.30;86.60;;;;;;5075526;28;20418;-76
2021/09/07 12:38:25;;;;;;;15.50;8.05;;;29.30;89.40;;;;;;5093710;28;20645;-76